KUVA/UVA METAR and TAF weather

Enter ICAO airport designator
Station Type Date Time Source
KUVA METAR 2021/08/04 19:55 UTC NOAA

KUVA 041955Z AUTO 10010G15KT 10SM CLR 33/17 A3002 RMK AO2 LTG DSNT SW AND W T03250172


Station Type Date Time Source
KUVA Decoded METAR 2021/08/04 19:55 UTC NOAA

Uvalde, Garner Field Airport, TX, United States (KUVA) 29-12-40N 099-44-36W
Aug 04, 2021 - 03:55 PM EDT / 2021.08.04 1955 UTC
Wind: from the E (100 degrees) at 12 MPH (10 KT) gusting to 17 MPH (15 KT):0
Visibility: 10 mile(s):0
Sky conditions: clear
Weather: Lightning observed
Temperature: 90.5 F (32.5 C)
Dew Point: 63.0 F (17.2 C)
Relative Humidity: 40%
Pressure (altimeter): 30.02 in. Hg (1016 hPa)
ob: KUVA 041955Z AUTO 10010G15KT 10SM CLR 33/17 A3002 RMK AO2 LTG DSNT SW AND W T03250172
cycle: 20

Station Type Date Time Source
KUVA TAF UTC NOAA

Error!

Example: see airport list